Time;durP1;ratioP1;P1;durP2;ratioP2;P2;SDS_P1;SDS_P2;PMS_P1;PMS_P2;Temp;Humidity;BMP_temperature;BMP_pressure;BME280_temperature;BME280_humidity;BME280_pressure;Samples;Min_cycle;Max_cycle;Signal;HPM_P1;HPM_P2
2022/07/20 00:02:23;;;;;;;14.23;5.90;;;;;;;22.98;52.83;101102.19;5027519;28;20098;-69
2022/07/20 00:04:50;;;;;;;12.32;5.80;;;;;;;22.89;54.52;101110.47;5043474;28;20060;-68
2022/07/20 00:07:15;;;;;;;12.20;5.82;;;;;;;22.88;52.54;101107.94;5044097;28;20021;-69
2022/07/20 00:12:25;;;;;;;11.75;5.93;;;;;;;22.79;54.25;101103.03;5047475;28;20101;-68
2022/07/20 00:14:50;;;;;;;14.05;5.95;;;;;;;22.69;55.20;101106.00;5045662;28;20029;-69
2022/07/20 00:17:16;;;;;;;10.65;6.28;;;;;;;22.64;55.29;101099.66;5047094;28;20052;-68
2022/07/20 00:19:42;;;;;;;12.45;6.20;;;;;;;22.57;55.74;101096.44;5047791;28;20037;-68
2022/07/20 00:22:07;;;;;;;11.25;6.20;;;;;;;22.58;50.70;101096.13;5044712;28;20029;-69
2022/07/20 00:24:33;;;;;;;12.25;6.40;;;;;;;22.63;51.04;101098.00;5038639;28;20048;-68
2022/07/20 00:26:58;;;;;;;12.27;6.50;;;;;;;22.63;51.17;101101.66;5037610;28;20029;-68
2022/07/20 00:29:24;;;;;;;13.75;6.50;;;;;;;22.66;51.11;101103.00;5046017;28;20033;-69
2022/07/20 00:31:49;;;;;;;12.85;6.60;;;;;;;22.61;50.22;101101.13;5047017;28;20061;-68
2022/07/20 00:34:14;;;;;;;11.15;6.43;;;;;;;22.53;54.23;101099.00;5046119;28;20036;-68
2022/07/20 00:36:40;;;;;;;11.73;6.28;;;;;;;22.46;55.16;101105.00;5047493;28;20021;-67
2022/07/20 00:39:05;;;;;;;11.48;6.35;;;;;;;22.35;56.78;101099.84;5046964;28;20040;-67
2022/07/20 00:41:30;;;;;;;11.02;6.35;;;;;;;22.24;56.54;101100.00;5047595;28;20021;-67
2022/07/20 00:44:07;;;;;;;11.10;6.53;;;;;;;22.07;56.45;101098.88;5044668;28;20368;-67
2022/07/20 00:46:36;;;;;;;12.50;6.50;;;;;;;22.01;57.47;101096.13;5046753;28;20383;-67
2022/07/20 00:49:02;;;;;;;9.95;6.88;;;;;;;21.97;57.61;101108.22;5047271;28;20053;-67
2022/07/20 00:51:28;;;;;;;11.07;6.57;;;;;;;22.01;56.62;101109.28;5047293;28;20037;-67
2022/07/20 00:53:53;;;;;;;13.85;8.00;;;;;;;22.14;50.39;101170.09;5044816;28;20036;-67
2022/07/20 00:56:19;;;;;;;13.40;7.75;;;;;;;22.61;47.06;101109.53;5046776;28;20021;-67
2022/07/20 00:58:45;;;;;;;11.10;7.53;;;;;;;22.58;48.16;101096.13;5055839;28;20033;-67
2022/07/20 01:01:11;;;;;;;11.88;8.15;;;;;;;22.57;48.98;101102.88;5041340;28;20068;-67
2022/07/20 01:03:37;;;;;;;15.27;7.80;;;;;;;22.56;51.60;101115.22;5043611;28;20464;-67
2022/07/20 01:06:02;;;;;;;12.73;7.60;;;;;;;22.60;48.79;101130.25;5046345;28;20112;-67
2022/07/20 01:08:28;;;;;;;11.77;7.72;;;;;;;22.69;47.97;101120.00;5055113;22;20031;-67
2022/07/20 01:10:56;;;;;;;11.10;7.50;;;;;;;22.64;48.73;101110.88;5041881;28;20086;-67
2022/07/20 01:13:21;;;;;;;13.48;8.18;;;;;;;22.65;46.25;101121.75;5047055;28;20044;-67
2022/07/20 01:15:48;;;;;;;12.52;7.85;;;;;;;22.68;46.71;101146.34;5045817;28;20051;-67
2022/07/20 01:18:13;;;;;;;13.80;7.65;;;;;;;22.74;45.76;101110.69;5046969;28;20017;-67
2022/07/20 01:20:44;;;;;;;15.40;8.02;;;;;;;22.85;44.78;101150.56;5044301;28;20028;-67
2022/07/20 01:23:10;;;;;;;10.30;8.10;;;;;;;22.88;45.00;101117.22;5046415;28;20166;-67
2022/07/20 01:25:35;;;;;;;12.45;8.77;;;;;;;22.92;44.21;101123.03;5044453;28;20523;-67
2022/07/20 01:28:05;;;;;;;10.98;8.13;;;;;;;22.84;46.98;101127.31;5044974;28;20048;-67
2022/07/20 01:30:30;;;;;;;15.18;8.45;;;;;;;22.83;45.81;101124.84;5044620;28;20043;-67
2022/07/20 01:32:56;;;;;;;16.48;8.65;;;;;;;22.79;47.95;101119.84;5045854;28;20382;-67
2022/07/20 01:35:21;;;;;;;17.40;8.65;;;;;;;22.62;48.00;101115.97;5046293;28;20055;-68
2022/07/20 01:37:46;;;;;;;14.32;9.07;;;;;;;22.42;50.83;101125.50;5046379;28;20027;-67
2022/07/20 01:40:12;;;;;;;13.97;8.50;;;;;;;22.32;50.84;101134.88;5044749;28;20515;-67
2022/07/20 01:42:37;;;;;;;12.70;8.68;;;;;;;22.13;52.89;101129.28;5046232;28;20338;-67
2022/07/20 01:45:03;;;;;;;18.88;9.18;;;;;;;21.95;52.79;101121.69;5044875;28;20032;-67
2022/07/20 01:47:28;;;;;;;17.55;9.80;;;;;;;21.69;53.61;101113.59;5045661;28;20434;-67
2022/07/20 01:49:53;;;;;;;12.35;9.13;;;;;;;21.60;53.42;101107.03;5044182;28;20021;-67
2022/07/20 01:52:19;;;;;;;14.07;10.30;;;;;;;21.26;54.18;101107.13;5045481;28;20028;-67
2022/07/20 01:54:44;;;;;;;14.70;9.60;;;;;;;21.07;55.67;101114.56;5046164;28;20603;-67
2022/07/20 01:57:09;;;;;;;19.42;10.85;;;;;;;20.97;55.77;101118.31;5045529;28;20275;-67
2022/07/20 01:59:34;;;;;;;12.50;9.52;;;;;;;20.89;56.43;101111.41;5043248;28;20033;-67
2022/07/20 02:02:00;;;;;;;16.98;10.30;;;;;;;20.84;56.44;101114.25;5045448;28;20021;-68
2022/07/20 02:04:25;;;;;;;15.60;10.32;;;;;;;20.72;57.53;101117.41;5045484;28;20033;-67
2022/07/20 02:06:50;;;;;;;18.10;10.98;;;;;;;20.78;57.31;101117.34;5045040;28;20104;-67
2022/07/20 02:09:15;;;;;;;17.05;10.63;;;;;;;20.81;56.09;101120.41;5039896;28;20044;-68
2022/07/20 02:11:41;;;;;;;16.47;10.40;;;;;;;20.83;55.53;101123.72;5045853;28;20029;-68
2022/07/20 02:14:06;;;;;;;16.42;10.63;;;;;;;20.87;55.32;101135.97;5044778;28;20745;-68
2022/07/20 02:16:31;;;;;;;19.52;11.90;;;;;;;20.95;53.80;101137.31;5045348;28;20171;-67
2022/07/20 02:18:57;;;;;;;17.25;11.20;;;;;;;21.09;53.38;101157.84;5044620;28;20035;-67
2022/07/20 02:21:22;;;;;;;21.77;11.75;;;;;;;21.26;50.72;101154.59;5045474;28;20494;-68
2022/07/20 02:23:49;;;;;;;15.48;11.32;;;;;;;21.44;49.54;101158.63;5043862;28;20029;-68
2022/07/20 02:26:15;;;;;;;21.10;11.88;;;;;;;21.57;49.31;101159.91;5045814;28;20398;-68
2022/07/20 02:28:41;;;;;;;15.38;10.82;;;;;;;21.80;48.28;101158.25;5042724;28;20108;-67
2022/07/20 02:31:07;;;;;;;19.10;11.32;;;;;;;21.94;47.56;101146.00;5044230;28;20029;-67
2022/07/20 02:33:33;;;;;;;16.60;11.13;;;;;;;22.02;46.37;101136.94;5042869;28;20029;-68
2022/07/20 02:35:58;;;;;;;19.70;11.52;;;;;;;22.08;47.99;101148.91;5045054;28;20539;-67
2022/07/20 02:38:24;;;;;;;18.30;11.50;;;;;;;22.13;47.89;101156.44;5045627;28;20031;-67
2022/07/20 02:40:50;;;;;;;21.83;11.80;;;;;;;22.16;47.33;101153.88;5045473;28;20051;-68
2022/07/20 02:43:16;;;;;;;16.10;11.40;;;;;;;22.21;47.72;101153.78;5043593;28;20029;-68
2022/07/20 02:45:41;;;;;;;20.38;12.77;;;;;;;22.21;48.53;101153.78;5043687;28;20083;-68
2022/07/20 02:48:06;;;;;;;17.67;11.82;;;;;;;22.18;48.14;101151.59;5045177;28;20666;-67
2022/07/20 02:50:34;;;;;;;18.58;13.23;;;;;;;22.15;48.21;101160.59;5045529;28;20615;-67
2022/07/20 02:53:00;;;;;;;20.00;12.27;;;;;;;22.11;48.62;101167.09;5043138;28;20059;-67
2022/07/20 02:55:26;;;;;;;22.55;13.40;;;;;;;22.10;48.54;101169.03;5045308;28;20079;-68
2022/07/20 02:57:52;;;;;;;21.83;13.55;;;;;;;22.05;49.49;101165.44;5045222;28;20324;-67
2022/07/20 03:00:18;;;;;;;22.30;13.70;;;;;;;22.04;49.38;101159.03;5043804;28;20025;-67
2022/07/20 03:02:44;;;;;;;24.92;14.93;;;;;;;22.06;49.31;101161.53;5043950;28;20029;-68
2022/07/20 03:05:09;;;;;;;21.63;14.20;;;;;;;22.01;50.12;101156.84;5045396;28;20033;-67
2022/07/20 03:07:34;;;;;;;20.08;15.05;;;;;;;22.00;50.22;101160.78;5045076;28;20944;-67
2022/07/20 03:09:59;;;;;;;22.45;15.35;;;;;;;21.94;50.56;101159.16;5044602;28;20041;-67
2022/07/20 03:12:25;;;;;;;25.35;15.30;;;;;;;21.90;50.95;101172.09;5044250;28;20070;-67
2022/07/20 03:14:51;;;;;;;23.58;15.35;;;;;;;21.87;50.97;101181.91;5044115;28;20052;-67
2022/07/20 03:17:16;;;;;;;26.77;17.08;;;;;;;21.83;52.22;101178.03;5044951;28;20025;-67
2022/07/20 03:19:42;;;;;;;27.52;18.77;;;;;;;21.86;52.76;101168.22;5045053;28;20024;-67
2022/07/20 03:22:07;;;;;;;28.15;18.95;;;;;;;21.82;53.61;101169.94;5042578;28;20086;-67
2022/07/20 03:24:33;;;;;;;29.90;20.33;;;;;;;21.81;54.08;101171.91;5044662;28;20024;-67
2022/07/20 03:26:58;;;;;;;30.23;21.17;;;;;;;21.77;54.97;101176.44;5044947;28;20558;-67
2022/07/20 03:29:23;;;;;;;34.78;21.95;;;;;;;21.72;55.59;101182.91;5044324;28;20032;-68
2022/07/20 03:31:48;;;;;;;31.75;23.30;;;;;;;21.72;56.81;101187.69;5042742;28;20037;-67
2022/07/20 03:34:14;;;;;;;33.27;22.50;;;;;;;21.68;56.91;101187.44;5044679;28;20593;-67
2022/07/20 03:36:39;;;;;;;33.88;24.00;;;;;;;21.64;57.42;101197.53;5045016;28;20276;-67
2022/07/20 03:39:05;;;;;;;38.15;24.25;;;;;;;21.62;57.91;101207.34;5043559;28;20107;-67
2022/07/20 03:41:30;;;;;;;39.63;25.40;;;;;;;21.53;58.54;101207.16;5043930;28;20463;-67
2022/07/20 03:43:55;;;;;;;39.00;25.95;;;;;;;21.53;58.60;101215.53;5044280;28;20041;-67
2022/07/20 03:46:20;;;;;;;39.30;26.53;;;;;;;21.48;59.52;101222.03;5028584;28;20021;-67
2022/07/20 03:48:46;;;;;;;38.97;28.10;;;;;;;21.54;59.75;101227.56;5029052;28;20610;-67
2022/07/20 03:51:11;;;;;;;45.58;28.60;;;;;;;21.49;59.99;101234.03;5028368;28;20036;-67
2022/07/20 03:53:36;;;;;;;44.75;32.00;;;;;;;21.42;61.68;101231.59;5042888;28;20025;-67
2022/07/20 03:56:02;;;;;;;46.50;32.03;;;;;;;21.43;62.23;101238.00;5048530;28;20036;-68
2022/07/20 03:58:27;;;;;;;50.65;34.45;;;;;;;21.44;62.91;101242.47;5047323;28;20702;-67
2022/07/20 04:00:52;;;;;;;52.47;36.53;;;;;;;21.46;63.63;101248.59;5047279;28;20158;-67
2022/07/20 04:03:18;;;;;;;46.03;34.87;;;;;;;21.39;63.92;101262.06;5046756;28;20314;-67
2022/07/20 04:05:43;;;;;;;52.58;38.70;;;;;;;21.42;64.77;101264.28;5046526;28;20310;-68
2022/07/20 04:08:08;;;;;;;54.40;37.25;;;;;;;21.41;65.19;101263.47;5048337;28;20009;-67
2022/07/20 04:10:35;;;;;;;54.13;40.75;;;;;;;21.39;66.12;101276.91;5048040;28;20120;-67
2022/07/20 04:13:02;;;;;;;66.07;42.38;;;;;;;21.41;66.74;101273.81;5047048;28;20029;-67
2022/07/20 04:15:28;;;;;;;64.50;43.10;;;;;;;21.41;66.70;101276.59;5046441;28;20110;-68
2022/07/20 04:17:53;;;;;;;66.03;44.43;;;;;;;21.41;67.03;101274.63;5047708;28;20079;-67
2022/07/20 04:20:18;;;;;;;60.50;45.37;;;;;;;21.40;67.58;101278.56;5048082;28;20300;-68
2022/07/20 04:22:43;;;;;;;59.08;45.78;;;;;;;21.44;67.80;101284.38;5046412;28;20899;-68
2022/07/20 04:25:09;;;;;;;59.20;44.33;;;;;;;21.47;67.31;101286.59;5047414;28;20032;-67
2022/07/20 04:27:34;;;;;;;65.07;46.67;;;;;;;21.48;68.12;101293.84;5048037;28;20270;-67
2022/07/20 04:29:59;;;;;;;63.33;47.53;;;;;;;21.52;68.36;101292.16;5046381;28;20025;-67
2022/07/20 04:32:24;;;;;;;65.82;47.22;;;;;;;21.55;68.12;101294.38;5046234;28;20540;-68
2022/07/20 04:34:50;;;;;;;61.85;46.83;;;;;;;21.64;68.35;101295.38;5047899;28;20025;-67
2022/07/20 04:37:15;;;;;;;61.45;45.75;;;;;;;21.74;68.19;101302.81;5047853;28;20475;-67
2022/07/20 04:39:40;;;;;;;67.80;47.33;;;;;;;21.85;67.89;101298.00;5047599;28;20010;-67
2022/07/20 04:42:06;;;;;;;64.97;46.87;;;;;;;21.90;67.58;101297.94;5045738;28;20677;-68
2022/07/20 04:44:31;;;;;;;64.53;45.72;;;;;;;21.96;68.06;101303.19;5046289;28;20327;-68
2022/07/20 04:46:56;;;;;;;66.93;46.80;;;;;;;22.06;66.87;101312.59;5045522;28;20075;-68
2022/07/20 04:49:22;;;;;;;66.80;46.95;;;;;;;22.08;67.71;101305.56;5047625;28;20250;-67
2022/07/20 04:51:47;;;;;;;73.18;48.42;;;;;;;22.16;66.20;101301.31;5045835;28;20116;-67
2022/07/20 04:54:13;;;;;;;62.05;47.60;;;;;;;22.18;66.79;101313.03;5053421;28;20035;-67
2022/07/20 04:56:38;;;;;;;62.13;46.58;;;;;;;22.21;66.55;101315.25;5044305;28;20037;-67
2022/07/20 04:59:04;;;;;;;67.28;47.00;;;;;;;22.23;66.25;101325.00;5046344;28;20029;-67
2022/07/20 05:01:29;;;;;;;68.85;46.38;;;;;;;22.23;67.03;101319.41;5044269;28;20037;-67
2022/07/20 05:03:54;;;;;;;66.03;47.75;;;;;;;22.19;67.67;101328.69;5046648;28;20033;-67
2022/07/20 05:06:20;;;;;;;69.20;47.95;;;;;;;22.20;66.95;101333.13;5047080;28;20108;-68
2022/07/20 05:08:45;;;;;;;66.80;47.40;;;;;;;22.16;66.75;101330.13;5051430;28;20036;-68
2022/07/20 05:11:11;;;;;;;66.97;48.45;;;;;;;22.15;66.77;101331.25;5046643;28;20033;-68
2022/07/20 05:13:36;;;;;;;73.93;48.45;;;;;;;22.17;66.77;101320.59;5044811;28;20635;-69
2022/07/20 05:16:01;;;;;;;66.80;46.83;;;;;;;22.13;66.66;101318.69;5044691;28;20364;-68
2022/07/20 05:18:30;;;;;;;63.22;48.67;;;;;;;22.11;66.57;101327.38;5045057;28;20869;-68
2022/07/20 05:20:56;;;;;;;73.43;48.38;;;;;;;22.09;66.77;101315.59;5045801;28;20104;-68
2022/07/20 05:23:21;;;;;;;71.05;48.00;;;;;;;22.07;66.96;101319.84;5045335;28;20406;-67
2022/07/20 05:25:49;;;;;;;74.22;46.90;;;;;;;22.07;67.52;101326.28;5039604;28;20198;-68
2022/07/20 05:28:18;;;;;;;69.18;49.83;;;;;;;22.05;66.92;101328.53;5045684;28;20134;-67
2022/07/20 05:30:43;;;;;;;71.97;48.20;;;;;;;22.08;67.00;101335.50;5046060;28;20028;-68
2022/07/20 05:33:08;;;;;;;73.35;48.67;;;;;;;22.11;67.46;101330.19;5046305;28;20029;-68
2022/07/20 05:35:34;;;;;;;74.15;49.17;;;;;;;22.16;67.22;101341.31;5045941;28;20036;-67
2022/07/20 05:38:00;;;;;;;71.07;48.77;;;;;;;22.20;66.40;101358.31;5046174;28;20487;-67
2022/07/20 05:40:25;;;;;;;71.28;48.70;;;;;;;22.22;67.04;101367.28;5045543;28;20283;-67
2022/07/20 05:42:51;;;;;;;72.57;48.55;;;;;;;22.21;67.00;101366.44;5046200;28;20047;-67
2022/07/20 05:45:16;;;;;;;63.95;46.05;;;;;;;22.23;66.76;101375.38;5043792;28;20032;-67
2022/07/20 05:47:42;;;;;;;71.28;47.33;;;;;;;22.25;66.37;101384.31;5045851;28;20476;-68
2022/07/20 05:50:07;;;;;;;65.72;45.90;;;;;;;22.26;66.92;101383.19;5037194;28;20531;-67
2022/07/20 05:52:33;;;;;;;66.10;45.72;;;;;;;22.31;66.93;101389.84;5026175;28;20033;-68
2022/07/20 05:54:58;;;;;;;67.30;46.08;;;;;;;22.38;65.96;101409.91;5028656;28;20466;-67
2022/07/20 05:57:23;;;;;;;65.72;44.35;;;;;;;22.42;65.57;101399.81;5046386;28;20056;-67
2022/07/20 05:59:49;;;;;;;62.72;42.45;;;;;;;22.54;64.91;101414.22;5043678;28;20399;-67
2022/07/20 06:02:15;;;;;;;60.10;41.67;;;;;;;22.63;63.95;101403.19;5045066;28;20072;-67
2022/07/20 06:04:40;;;;;;;61.78;40.55;;;;;;;22.72;63.65;101405.03;5044518;28;20102;-67
2022/07/20 06:07:06;;;;;;;62.00;39.97;;;;;;;22.86;62.92;101410.75;5045655;28;20033;-67
2022/07/20 06:09:31;;;;;;;64.28;38.78;;;;;;;23.01;62.77;101415.31;5044967;28;20041;-67
2022/07/20 06:11:56;;;;;;;55.88;39.65;;;;;;;23.13;62.27;101426.13;5045155;28;20448;-67
2022/07/20 06:14:21;;;;;;;61.15;38.13;;;;;;;23.18;62.17;101424.06;5044887;28;20083;-67
2022/07/20 06:16:47;;;;;;;55.42;36.95;;;;;;;23.26;61.19;101443.00;5042722;28;20043;-67
2022/07/20 06:19:12;;;;;;;52.50;35.20;;;;;;;23.33;61.60;101444.63;5044961;28;20467;-66
2022/07/20 06:21:37;;;;;;;59.88;36.15;;;;;;;23.29;60.93;101447.19;5045518;28;20145;-66
2022/07/20 06:24:03;;;;;;;54.00;36.17;;;;;;;23.29;61.47;101450.81;5045062;28;20028;-66
2022/07/20 06:26:28;;;;;;;55.30;36.78;;;;;;;23.33;61.91;101455.84;5044826;28;20033;-67
2022/07/20 06:28:53;;;;;;;53.63;35.08;;;;;;;23.36;60.95;101452.41;5044722;28;20021;-67
2022/07/20 06:31:19;;;;;;;54.33;35.38;;;;;;;23.37;60.62;101454.06;5043970;28;20091;-67
2022/07/20 06:33:44;;;;;;;50.97;33.53;;;;;;;23.41;60.51;101467.19;5045849;28;20059;-67
2022/07/20 06:36:09;;;;;;;50.00;34.28;;;;;;;23.43;62.21;101475.31;5043142;28;20025;-67
2022/07/20 06:38:35;;;;;;;52.70;33.55;;;;;;;23.45;60.36;101479.47;5044184;28;20455;-67
2022/07/20 06:41:01;;;;;;;51.95;32.80;;;;;;;23.52;60.75;101485.56;5044330;28;20025;-69
2022/07/20 06:43:26;;;;;;;50.30;32.92;;;;;;;23.55;60.91;101501.75;5044348;28;20051;-69
2022/07/20 06:45:51;;;;;;;56.33;32.38;;;;;;;23.52;60.95;101507.16;5043603;28;20466;-69
2022/07/20 06:48:17;;;;;;;47.70;30.58;;;;;;;23.52;60.81;101522.00;5044585;28;20029;-69
2022/07/20 06:50:42;;;;;;;45.65;29.45;;;;;;;23.52;60.58;101524.81;5044309;28;20078;-69
2022/07/20 06:53:08;;;;;;;47.65;29.73;;;;;;;23.47;61.06;101527.69;5044242;28;20377;-68
2022/07/20 06:55:33;;;;;;;37.83;26.08;;;;;;;23.53;60.04;101548.06;5042013;28;20032;-69
2022/07/20 06:57:58;;;;;;;42.65;28.48;;;;;;;23.49;60.44;101535.78;5040175;28;20020;-69
2022/07/20 07:00:24;;;;;;;44.00;29.20;;;;;;;23.50;60.66;101548.66;5041644;28;20031;-70
2022/07/20 07:02:49;;;;;;;44.42;29.20;;;;;;;23.56;60.27;101536.22;5043040;28;20387;-70
2022/07/20 07:05:14;;;;;;;46.10;29.27;;;;;;;23.59;60.88;101535.63;5044574;28;20348;-70
2022/07/20 07:07:40;;;;;;;47.53;29.33;;;;;;;23.73;59.95;101536.59;5044316;28;20021;-69
2022/07/20 07:10:06;;;;;;;42.80;30.20;;;;;;;23.86;60.80;101526.56;5043546;28;20045;-70
2022/07/20 07:12:31;;;;;;;45.22;29.15;;;;;;;23.95;59.80;101526.72;5044238;28;20033;-70
2022/07/20 07:14:56;;;;;;;43.95;29.40;;;;;;;23.96;59.96;101534.84;5041696;28;20067;-69
2022/07/20 07:17:21;;;;;;;47.38;29.67;;;;;;;24.00;59.03;101549.94;5043733;28;20025;-69
2022/07/20 07:19:47;;;;;;;41.00;28.98;;;;;;;24.10;59.09;101545.31;5043947;28;20070;-70
2022/07/20 07:22:12;;;;;;;48.40;29.43;;;;;;;24.24;58.90;101547.03;5041975;28;20053;-70
2022/07/20 07:24:37;;;;;;;47.50;28.73;;;;;;;24.36;58.02;101542.94;5041398;28;20315;-69
2022/07/20 07:27:03;;;;;;;47.05;29.70;;;;;;;24.50;58.74;101549.44;5023682;28;20053;-69
2022/07/20 07:29:28;;;;;;;47.45;28.75;;;;;;;24.59;57.86;101553.22;5023373;28;20388;-70
2022/07/20 07:31:58;;;;;;;49.85;27.98;;;;;;;24.70;57.08;101554.69;5023798;28;20053;-69
2022/07/20 07:34:25;;;;;;;40.65;28.17;;;;;;;24.67;56.67;101552.47;5039273;28;20034;-69
2022/07/20 07:36:50;;;;;;;42.17;28.20;;;;;;;24.77;56.72;101566.34;5042688;28;20107;-69
2022/07/20 07:39:15;;;;;;;41.40;28.00;;;;;;;24.94;55.94;101581.78;5044216;28;20108;-69
2022/07/20 07:41:40;;;;;;;43.95;27.90;;;;;;;24.98;55.33;101589.28;5042660;28;20267;-69
2022/07/20 07:44:06;;;;;;;42.63;28.88;;;;;;;25.00;55.22;101589.81;5041118;28;20021;-69
2022/07/20 07:46:31;;;;;;;42.67;28.90;;;;;;;24.97;56.12;101606.44;5042343;28;20032;-69
2022/07/20 07:48:56;;;;;;;43.80;28.38;;;;;;;24.92;54.89;101603.75;5042731;28;20035;-69
2022/07/20 07:51:22;;;;;;;42.08;27.90;;;;;;;24.94;55.66;101607.91;5043472;28;20029;-69
2022/07/20 07:53:47;;;;;;;40.72;27.27;;;;;;;25.04;55.85;101606.88;5042903;28;20045;-69
2022/07/20 07:56:13;;;;;;;42.40;26.92;;;;;;;25.03;55.55;101605.22;5039439;28;20025;-69
2022/07/20 07:58:38;;;;;;;42.03;27.92;;;;;;;25.05;56.00;101617.00;5030968;28;20040;-69
2022/07/20 08:01:04;;;;;;;48.05;27.95;;;;;;;25.14;56.30;101620.75;5036580;28;20445;-69
2022/07/20 08:03:29;;;;;;;42.53;27.08;;;;;;;25.17;55.57;101608.91;5032149;28;20476;-69
2022/07/20 08:05:54;;;;;;;43.83;28.52;;;;;;;25.16;55.24;101607.25;5035992;28;20044;-69
2022/07/20 08:08:20;;;;;;;41.97;26.92;;;;;;;25.18;54.95;101604.94;5032716;28;20035;-70
2022/07/20 08:10:45;;;;;;;43.35;27.70;;;;;;;25.32;55.84;101596.53;5040111;28;20084;-69
2022/07/20 08:13:11;;;;;;;41.42;28.10;;;;;;;25.38;55.78;101586.84;5047324;28;20459;-69
2022/07/20 08:15:37;;;;;;;39.88;25.73;;;;;;;25.52;55.81;101575.59;5037753;28;20025;-69
2022/07/20 08:18:03;;;;;;;37.30;24.77;;;;;;;25.51;53.45;101569.13;5038479;28;20135;-69
2022/07/20 08:20:29;;;;;;;40.00;25.60;;;;;;;25.52;54.16;101572.78;5040005;28;20515;-69
2022/07/20 08:22:54;;;;;;;39.72;23.95;;;;;;;25.55;53.83;101570.19;5038559;28;20033;-70
2022/07/20 08:25:20;;;;;;;36.42;23.52;;;;;;;25.66;52.89;101572.75;5039502;28;20033;-68
2022/07/20 08:27:46;;;;;;;35.03;23.02;;;;;;;25.76;50.57;101569.75;5038463;28;20035;-71
2022/07/20 08:30:12;;;;;;;34.50;23.95;;;;;;;25.81;50.92;101578.91;5046554;28;20099;-70
2022/07/20 08:32:37;;;;;;;34.78;23.35;;;;;;;25.93;50.65;101563.44;5048339;28;20032;-70
2022/07/20 08:35:02;;;;;;;30.42;23.40;;;;;;;26.03;50.29;101574.47;5047871;28;20024;-70
2022/07/20 08:37:29;;;;;;;31.38;23.13;;;;;;;26.16;50.46;101592.47;5046849;28;20036;-69
2022/07/20 08:39:54;;;;;;;37.58;21.52;;;;;;;26.32;50.78;101597.41;5036503;28;20120;-69
2022/07/20 08:42:20;;;;;;;33.05;21.98;;;;;;;26.45;48.56;101606.16;5036491;28;20112;-69
2022/07/20 08:44:45;;;;;;;33.33;21.65;;;;;;;26.68;50.91;101609.81;5045638;28;20394;-69
2022/07/20 08:47:12;;;;;;;34.65;20.90;;;;;;;26.72;47.84;101610.84;5044229;28;20025;-70
2022/07/20 08:49:38;;;;;;;30.63;22.20;;;;;;;26.58;47.75;101617.34;5033009;28;20030;-69
2022/07/20 08:52:04;;;;;;;31.67;22.20;;;;;;;26.54;49.03;101615.50;5033443;28;20344;-69
2022/07/20 08:54:31;;;;;;;32.03;22.15;;;;;;;26.58;48.75;101608.06;5037965;28;20029;-69
2022/07/20 08:56:56;;;;;;;32.20;21.97;;;;;;;26.46;48.94;101610.63;5043422;28;20033;-69
2022/07/20 08:59:22;;;;;;;33.10;22.23;;;;;;;26.53;50.12;101599.75;5034047;28;20030;-69
2022/07/20 09:02:01;;;;;;;31.13;22.27;;;;;;;26.79;49.86;101594.28;5041156;28;20021;-69
2022/07/20 09:04:26;;;;;;;30.20;20.42;;;;;;;27.13;48.70;101591.69;5044588;28;20047;-69
2022/07/20 09:06:52;;;;;;;38.47;21.55;;;;;;;27.48;47.85;101594.63;5045905;28;20038;-69
2022/07/20 09:09:19;;;;;;;32.47;21.52;;;;;;;27.71;47.82;101569.97;5038898;28;20049;-69
2022/07/20 09:11:45;;;;;;;29.77;21.20;;;;;;;27.84;45.31;101559.72;5045401;28;20096;-69
2022/07/20 09:14:11;;;;;;;32.25;21.25;;;;;;;27.89;45.86;101577.31;5045332;28;20089;-69
2022/07/20 09:16:48;;;;;;;31.60;21.73;;;;;;;28.03;44.61;101601.72;5044219;28;20031;-69
2022/07/20 09:19:15;;;;;;;29.00;21.20;;;;;;;28.25;45.29;101618.53;5044332;28;20483;-68
2022/07/20 09:21:41;;;;;;;33.22;21.73;;;;;;;28.41;44.62;101631.03;5046130;28;20021;-69
2022/07/20 09:24:08;;;;;;;30.40;21.35;;;;;;;28.38;44.33;101630.84;5044765;28;20056;-69
2022/07/20 09:26:34;;;;;;;33.72;22.25;;;;;;;28.33;43.55;101651.63;5045853;28;20418;-69
2022/07/20 09:29:03;;;;;;;28.05;20.10;;;;;;;28.50;43.61;101655.66;5042295;28;20024;-66
2022/07/20 09:31:34;;;;;;;38.42;21.30;;;;;;;28.53;43.75;101666.25;5046046;28;20456;-66
2022/07/20 09:34:00;;;;;;;32.53;21.02;;;;;;;28.56;43.55;101668.44;5046209;28;20158;-66
2022/07/20 09:36:28;;;;;;;27.20;19.83;;;;;;;29.28;42.81;101678.97;5035822;28;20713;-66
2022/07/20 09:38:54;;;;;;;33.03;20.42;;;;;;;29.98;40.92;101688.84;5043508;28;20033;-66
2022/07/20 09:41:31;;;;;;;28.83;19.70;;;;;;;31.01;41.05;101677.88;5044663;28;20062;-66
2022/07/20 09:43:58;;;;;;;28.75;19.42;;;;;;;31.02;39.14;101661.69;5043941;28;20083;-66
2022/07/20 09:46:33;;;;;;;23.85;18.73;;;;;;;31.12;38.47;101678.25;5044094;28;20051;-69
2022/07/20 09:49:07;;;;;;;27.65;19.75;;;;;;;31.91;38.09;101661.97;5044297;28;20033;-68
2022/07/20 09:51:36;;;;;;;26.83;18.95;;;;;;;32.61;35.32;101664.53;5038202;28;20486;-68
2022/07/20 09:54:07;;;;;;;31.05;18.35;;;;;;;33.60;33.93;101640.03;5043930;28;20029;-67
2022/07/20 09:56:34;;;;;;;26.63;19.23;;;;;;;34.82;31.32;101647.31;5037592;28;20980;-67
2022/07/20 09:59:04;;;;;;;28.48;18.80;;;;;;;35.40;30.70;101651.25;5041192;28;20091;-67
2022/07/20 10:01:35;;;;;;;24.55;17.52;;;;;;;36.04;30.91;101649.44;5048061;28;20025;-68
2022/07/20 10:04:11;;;;;;;26.55;18.27;;;;;;;36.10;30.72;101639.34;5043840;28;20056;-67
2022/07/20 10:06:38;;;;;;;23.55;17.30;;;;;;;36.45;28.67;101643.91;5041677;28;20036;-68
2022/07/20 10:09:04;;;;;;;;;;;;;;;37.43;27.96;101644.63;5044266;28;20134;-67
2022/07/20 10:11:30;;;;;;;24.15;17.95;;;;;;;36.29;28.90;101658.38;5042823;28;20367;-67
2022/07/20 10:14:03;;;;;;;28.08;18.30;;;;;;;35.80;29.38;101668.69;5042792;28;20025;-68
2022/07/20 10:16:37;;;;;;;24.65;17.38;;;;;;;35.82;30.55;101668.28;5042878;28;20036;-67
2022/07/20 10:19:04;;;;;;;25.67;17.48;;;;;;;35.35;30.44;101670.34;5044046;28;20033;-68
2022/07/20 10:21:38;;;;;;;23.42;16.42;;;;;;;34.71;31.00;101666.22;5031114;28;20061;-67
2022/07/20 10:24:25;;;;;;;25.85;15.52;;;;;;;34.71;30.57;101673.97;5042894;28;20537;-67
2022/07/20 10:26:54;;;;;;;20.90;15.05;;;;;;;34.68;30.11;101669.84;5043639;28;20152;-67
2022/07/20 10:29:27;;;;;;;25.92;15.15;;;;;;;35.25;30.41;101676.69;5044826;28;20040;-67
2022/07/20 10:31:56;;;;;;;24.42;15.07;;;;;;;35.48;29.04;101659.56;5044789;28;20021;-67
2022/07/20 10:34:37;;;;;;;24.83;15.25;;;;;;;34.29;31.08;101661.22;5042687;28;20036;-67
2022/07/20 10:37:28;;;;;;;20.58;14.25;;;;;;;32.63;33.66;101653.63;5044055;28;20029;-67
2022/07/20 10:40:12;;;;;;;22.98;15.23;;;;;;;31.39;35.89;101674.00;5041126;28;20501;-67
2022/07/20 10:42:48;;;;;;;26.60;16.30;;;;;;;30.30;38.34;101663.81;5039255;28;20029;-67
2022/07/20 10:47:48;;;;;;;21.38;13.52;;;;;;;32.81;34.80;101659.84;5040757;28;20049;-67
2022/07/20 10:50:27;;;;;;;19.80;13.68;;;;;;;34.17;31.52;101654.84;5043596;28;20111;-67
2022/07/20 10:52:56;;;;;;;20.58;12.38;;;;;;;34.16;31.36;101658.88;5043222;28;20421;-67
2022/07/20 10:55:33;;;;;;;20.58;13.80;;;;;;;33.22;32.86;101652.88;5031496;28;20051;-67
2022/07/20 10:58:10;;;;;;;;;;;;;;;33.27;32.92;101643.22;5027547;28;20403;-67
2022/07/20 11:00:36;;;;;;;20.48;13.75;;;;;;;33.17;33.38;101633.22;5028611;28;19924;-66
2022/07/20 11:03:03;;;;;;;16.83;12.63;;;;;;;32.59;33.26;101637.63;5029767;28;20082;-66
2022/07/20 11:05:29;;;;;;;19.10;11.98;;;;;;;32.42;34.24;101650.16;5034132;28;20111;-66
2022/07/20 11:07:55;;;;;;;21.88;13.07;;;;;;;32.13;34.15;101665.47;5031940;28;20446;-66
2022/07/20 11:10:27;;;;;;;20.05;12.82;;;;;;;32.04;35.43;101671.31;5029577;28;20103;-66
2022/07/20 11:13:06;;;;;;;18.70;12.73;;;;;;;32.17;35.07;101660.72;5041956;28;20032;-65
2022/07/20 11:15:49;;;;;;;19.90;11.95;;;;;;;32.09;35.19;101658.84;5035678;28;20104;-66